Tiempo atmosférico en la estación meteorológica de La Oliva, Las Palmas (217 m.)



Fecha
DESCASC
Temp. máxima en grados centígrados (hora)
DESCASC
Temp. mínima en grados centígrados (hora)
DESCASC
Temp. media en grados centígrados
DESCASC
Racha de viento máxima en m/sg (hora)
DESCASC
Velocidad máxima media en intervalos de 10 minutos(hora)
DESCASC
Precipitaciones diarias en mm
DESCASC
Precipitaciones de 00:00 a 06:00 en mm
DESCASC
Precipitaciones de 06:00 a 12:00 en mm
DESCASC
Precipitaciones de 12:00 a 18:00 en mm
DESCASC
Precipitaciones de 18:00 a 24:00 en mm
DESCASC
22-04-2019 20.4 (13:30) 15.1 (06:00) 17.8 11.67 (17:10) 7.5 (13:30) 0 0 0 0 0
21-04-2019 20.5 (15:30) 14.4 (07:50) 17.4 11.39 (14:50) 6.11 (12:40) 0 0 0 0 0
20-04-2019 20.6 (14:30) 14.7 (07:20) 17.7 11.11 (14:40) 6.11 (19:00) 0 0 0 0 0
19-04-2019 20.5 (15:00) 14.6 (06:50) 17.6 12.22 (14:10) 6.39 (12:00) 0 0 0 0 0
18-04-2019 20.3 (15:10) 13.8 (00:00) 17 11.39 (17:00) 5.83 (10:10) 0 0 0 0 0
17-04-2019 22.2 (13:00) 13.9 (00:00) 18.1 9.17 (13:40) 6.67 (14:30) 0 0 0 0 0
16-04-2019 25.1 (16:30) 15.3 (00:00) 20.2 11.67 (16:20) 7.22 (16:10) 0 0 0 0 0
15-04-2019 22.5 (14:10) 13.9 (00:00) 18.2 9.72 (15:20) 5.28 (14:20) 0 0 0 0 0
14-04-2019 23.8 (13:10) 12 (00:00) 17.9 8.33 (20:00) 5.83 (19:10) 0 0 0 0 0
13-04-2019 22.1 (14:30) 12.9 (00:00) 17.5 11.11 (01:10) 6.11 (01:20) 0 0 0 0 0
12-04-2019 20.2 (15:10) 13.9 (00:00) 17.1 11.67 (15:50) 6.39 (19:50) 0 0 0 0 0
11-04-2019 20 (14:40) 14.6 (00:00) 17.3 13.06 (15:40) 7.22 (15:40) 0 0 0 0 0
10-04-2019 19.3 (16:50) 14.6 (00:00) 16.9 13.06 (20:10) 7.22 (18:10) 0 0 0 0 0
09-04-2019 20.6 (16:20) 14.2 (00:00) 17.4 10.28 (16:10) 5.83 (20:10) 0 0 0 0 0
08-04-2019 20.7 (14:10) 13.1 (00:00) 16.9 9.44 (18:50) 5.83 (15:50) 0.2 0 0.2 0 0
07-04-2019 20.1 (13:50) 12 (00:00) 16.1 9.44 (14:10) 5.28 (17:40) 0 0 0 0 0
06-04-2019 19.1 (15:10) 13.5 (00:00) 16.3 12.22 (12:20) 6.67 (13:00) 0 0 0 0 0
05-04-2019 20.1 (14:40) 11.6 (00:00) 15.9 13.61 (13:50) 8.61 (15:20) 0.4 0 0 0.4 0
04-04-2019 20.2 (14:10) 14 (00:00) 17.1 9.17 (14:00) 5 (13:20) 0 0 0 0 0
03-04-2019 20.4 (12:10) 13.8 (00:00) 17.1 12.5 (15:50) 8.33 (16:10) 0.8 0 0 0.8 0
02-04-2019 22.4 (15:20) 14.4 (00:00) 18.4 10.28 (12:40) 6.67 (12:40) 0 0 0 0 0
01-04-2019 20.2 (12:10) 12.8 (00:00) 16.5 11.11 (15:20) 4.17 (15:20) 0.8 0 0 0.8 0
31-03-2019 21 (15:30) 13 (00:00) 17 10 (18:50) 7.5 (18:20) 0 0 0 0 0
30-03-2019 21.3 (15:00) 10.3 (00:00) 15.8 9.17 (15:50) 5 (14:20) 0 0 0 0 0
29-03-2019 20.5 (13:00) 12.3 (00:00) 16.4 8.61 (16:10) 3.61 (12:30) 0 0 0 0 0
28-03-2019 19.9 (11:30) 12.9 (00:00) 16.4 5.83 (12:00) 3.61 (12:40) 0 0 0 0 0
27-03-2019 21.6 (13:50) 11.5 (00:00) 16.6 7.22 (13:50) 4.72 (13:30) 0 0 0 0 0
26-03-2019 20.2 (16:10) 12.5 (00:00) 16.4 9.44 (12:50) 5 (12:50) 13.2 0 0.2 13 0
25-03-2019 20.1 (14:50) 13.3 (00:00) 16.7 10.83 (13:40) 7.5 (13:50) 3.4 0 0 0 3.4

Gráficas

Temp. máximas Temp. mínimas Temp. medias Precipitaciones Rachas de viento máximas Velocidades máximas media en intervalos de 10 minutos

Datos horarios

Fecha y hora oficial Temperatura (ºC) Velocidad del viento (km/h) Dirección del viento Racha (km/h) Dirección de racha Precipitación (mm) Presión (hPa) Tendencia (hPa) Humedad (%)
2019-04-23 23:00:00 14.1 9 Noroeste 32 Noroeste 0.2 -- -- 87
2019-04-23 22:00:00 15.4 11 Norte 29 Norte 0 -- -- 81
2019-04-23 21:00:00 16.2 12 Norte 26 Noroeste 0 -- -- 72
2019-04-23 20:00:00 16.8 11 Norte 25 Norte 0 -- -- 70
2019-04-23 19:00:00 17.5 13 Norte 28 Norte 0 -- -- 68
2019-04-23 18:00:00 18.7 12 Norte 34 Noroeste 0 -- -- 68
2019-04-23 17:00:00 20 18 Noroeste 36 Noroeste 0 -- -- 64
2019-04-23 16:00:00 20.1 19 Noroeste 34 Oeste 0 -- -- 65
2019-04-23 15:00:00 19.6 17 Noroeste 36 Noroeste 0 -- -- 69
2019-04-23 14:00:00 18.3 18 Noroeste 33 Noroeste 0 -- -- 83
2019-04-23 13:00:00 18.4 21 Noroeste 38 Noroeste 0 -- -- 85
2019-04-23 12:00:00 17.9 22 Noroeste 40 Noroeste 0.4 -- -- 87
2019-04-23 11:00:00 18.2 23 Noroeste 39 Oeste 0 -- -- 81
2019-04-23 10:00:00 19.7 25 Noroeste 41 Oeste 0 -- -- 65
2019-04-23 09:00:00 18 24 Noroeste 37 Oeste 0 -- -- 74
2019-04-23 08:00:00 16.6 19 Noroeste 37 Oeste 0 -- -- 72
2019-04-23 07:00:00 16.2 24 Noroeste 33 Noroeste 0 -- -- 81
2019-04-23 06:00:00 16.1 21 Noroeste 32 Noroeste 0 -- -- 86
2019-04-23 05:00:00 16 17 Noroeste 27 Noroeste 0 -- -- 86
2019-04-23 04:00:00 16.1 13 Noroeste 26 Noroeste 0 -- -- 85
2019-04-23 03:00:00 16.6 13 Noroeste 32 Oeste 0 -- -- 86
2019-04-23 02:00:00 16.8 22 Noroeste 32 Oeste 0 -- -- 84
2019-04-23 01:00:00 16.7 17 Noroeste 29 Noroeste 0 -- -- 82
2019-04-23 00:00:00 16.7 16 Noroeste 33 Noroeste 0 -- -- 77
2019-04-22 23:00:00 16.5 20 Noroeste 35 Noroeste 0 -- -- 81
2019-04-22 22:00:00 16.6 15 Noroeste 27 Noroeste 0 -- -- 84
2019-04-22 21:00:00 16.6 18 Noroeste 32 Noroeste 0 -- -- 83
2019-04-22 20:00:00 17 20 Noroeste 35 Noroeste 0 -- -- 80
2019-04-22 19:00:00 17.7 22 Noroeste 39 Noroeste 0 -- -- 76
2019-04-22 18:00:00 18.8 22 Noroeste 42 Noroeste 0 -- -- 69
2019-04-22 17:00:00 19.3 23 Noroeste 39 Noroeste 0 -- -- 65
2019-04-22 16:00:00 20.1 22 Noroeste 35 Noroeste 0 -- -- 64
2019-04-22 15:00:00 19.8 22 Noroeste 35 Noroeste 0 -- -- 64
2019-04-22 14:00:00 19.7 24 Noroeste 40 Oeste 0 -- -- 64
2019-04-22 13:00:00 20 22 Noroeste 37 Noroeste 0 -- -- 64
2019-04-22 12:00:00 19.5 25 Noroeste 36 Oeste 0 -- -- 65
2019-04-22 11:00:00 19 25 Noroeste 35 Noroeste 0 -- -- 68
2019-04-22 10:00:00 18 21 Noroeste 34 Noroeste 0 -- -- 71
2019-04-22 09:00:00 16.6 21 Noroeste 32 Noroeste 0 -- -- 76
2019-04-22 08:00:00 15.8 21 Noroeste 32 Noroeste 0 -- -- 80
2019-04-22 07:00:00 15.6 15 Noroeste 28 Noroeste 0 -- -- 85
2019-04-22 06:00:00 15.1 15 Noroeste 32 Noroeste 0 -- -- 82
2019-04-22 05:00:00 15.7 19 Noroeste 38 Noroeste 0 -- -- 81
2019-04-22 04:00:00 16 20 Noroeste 34 Noroeste 0 -- -- 80
2019-04-22 03:00:00 16.1 21 Noroeste 36 Noroeste 0 -- -- 80
2019-04-22 02:00:00 16.3 20 Noroeste 35 Noroeste 0 -- -- 81
2019-04-22 01:00:00 16.2 21 Noroeste 38 Noroeste 0 -- -- 79
2019-04-22 00:00:00 16.4 20 Noroeste 35 Noroeste 0 -- -- 82
2019-04-21 23:00:00 16.6 20 Noroeste 33 Noroeste 0 -- -- 83
2019-04-21 22:00:00 16.6 17 Noroeste 32 Noroeste 0 -- -- 84
2019-04-21 21:00:00 16.6 22 Noroeste 35 Noroeste 0 -- -- 83
2019-04-21 20:00:00 17.2 19 Noroeste 33 Noroeste 0 -- -- 78
2019-04-21 19:00:00 18.7 15 Noroeste 35 Noroeste 0 -- -- 71
2019-04-21 18:00:00 19.2 18 Norte 35 Noroeste 0 -- -- 66
2019-04-21 17:00:00 20.1 20 Norte 36 Norte 0 -- -- 64
2019-04-21 16:00:00 20.2 19 Norte 39 Noroeste 0 -- -- 66
2019-04-21 15:00:00 20.2 20 Norte 41 Noroeste 0 -- -- 66
2019-04-21 14:00:00 19.3 19 Noroeste 38 Norte 0 -- -- 69
2019-04-21 13:00:00 17.2 18 Noroeste 36 Noroeste 0 -- -- 82
2019-04-21 12:00:00 17.9 20 Noroeste 34 Noroeste 0 -- -- 76
2019-04-21 11:00:00 17.2 17 Noroeste 35 Noroeste 0 -- -- 77
2019-04-21 10:00:00 17.1 14 Norte 31 Norte 0 -- -- 77
2019-04-21 09:00:00 16.3 13 Noroeste 23 Noroeste 0 -- -- 79
2019-04-21 08:00:00 14.5 5 Noroeste 13 Norte 0 -- -- 85
2019-04-21 07:00:00 14.6 6 Norte 19 Norte 0 -- -- 85
2019-04-21 06:00:00 14.8 8 Norte 18 Norte 0 -- -- 85
2019-04-21 05:00:00 14.7 9 Norte 19 Norte 0 -- -- 83
2019-04-21 04:00:00 15.1 8 Norte 22 Noroeste 0 -- -- 84
2019-04-21 03:00:00 15.2 10 Norte 21 Norte 0 -- -- 84
2019-04-21 02:00:00 15.6 10 Norte 22 Norte 0 -- -- 84
2019-04-21 01:00:00 15.6 14 Norte 29 Norte 0 -- -- 82
2019-04-21 00:00:00 16.1 15 Norte 28 Norte 0 -- -- 83
2019-04-20 23:00:00 16.2 8 Norte 31 Norte 0 -- -- 83
2019-04-20 22:00:00 16.3 12 Norte 27 Norte 0 -- -- 81
2019-04-20 21:00:00 16.6 12 Norte 32 Noroeste 0 -- -- 80
2019-04-20 20:00:00 17.2 15 Norte 36 Noroeste 0 -- -- 75
2019-04-20 19:00:00 18.1 22 Noroeste 36 Noroeste 0 -- -- 69
2019-04-20 18:00:00 19.9 19 Noroeste 38 Noroeste 0 -- -- 61
2019-04-20 17:00:00 20.1 19 Noroeste 36 Noroeste 0 -- -- 56
2019-04-20 16:00:00 19.9 21 Norte 39 Noroeste 0 -- -- 57
2019-04-20 15:00:00 19.3 18 Noroeste 40 Noroeste 0 -- -- 64
2019-04-20 14:00:00 20.1 18 Norte 36 Noroeste 0 -- -- 59
2019-04-20 13:00:00 19.5 17 Noroeste 35 Norte 0 -- -- 61
2019-04-20 12:00:00 17.2 14 Norte 31 Norte 0 -- -- 74
2019-04-20 11:00:00 17.2 17 Norte 33 Norte 0 -- -- 70
2019-04-20 10:00:00 16.7 17 Norte 32 Norte 0 -- -- 72
2019-04-20 09:00:00 16.4 17 Norte 32 Norte 0 -- -- 74
2019-04-20 08:00:00 15.1 13 Norte 28 Norte 0 -- -- 81
2019-04-20 07:00:00 14.8 14 Norte 30 Norte 0 -- -- 79
2019-04-20 06:00:00 14.8 10 Norte 29 Norte 0 -- -- 76
2019-04-20 05:00:00 14.9 14 Norte 32 Norte 0 -- -- 75
2019-04-20 04:00:00 15.1 15 Norte 28 Norte 0 -- -- 76
2019-04-20 03:00:00 15.1 12 Norte 24 Norte 0 -- -- 77
2019-04-20 02:00:00 15.1 12 Norte 31 Noroeste 0 -- -- 77
2019-04-20 01:00:00 15.3 12 Norte 34 Norte 0 -- -- 79
2019-04-20 00:00:00 15.5 13 Norte 31 Norte 0 -- -- 79
2019-04-19 23:00:00 15.5 13 Norte 32 Noroeste 0 -- -- 78
2019-04-19 22:00:00 15.8 14 Norte 32 Norte 0 -- -- 77
2019-04-19 21:00:00 16.1 16 Norte 38 Noroeste 0 -- -- 76
2019-04-19 20:00:00 17.2 17 Noroeste 38 Norte 0 -- -- 73
2019-04-19 19:00:00 17.5 17 Noroeste 34 Noroeste 0 -- -- 75
2019-04-19 18:00:00 17.8 18 Noroeste 36 Norte 0 -- -- 74
2019-04-19 17:00:00 19.9 20 Norte 41 Noroeste 0 -- -- 59
2019-04-19 16:00:00 20.3 22 Norte 41 Noroeste 0 -- -- 57
2019-04-19 15:00:00 20.5 20 Noroeste 44 Norte 0 -- -- 57
2019-04-19 14:00:00 20.3 19 Norte 42 Noroeste 0 -- -- 56
2019-04-19 13:00:00 19.7 21 Norte 39 Norte 0 -- -- 54
2019-04-19 12:00:00 19.1 23 Norte 41 Norte 0 -- -- 61
2019-04-19 11:00:00 18 22 Norte 38 Norte 0 -- -- 65
2019-04-19 10:00:00 16.9 17 Norte 35 Norte 0 -- -- 73
2019-04-19 09:00:00 15.8 15 Norte 39 Norte 0 -- -- 76
2019-04-19 08:00:00 15.2 17 Norte 31 Nordeste 0 -- -- 79
2019-04-19 07:00:00 14.6 13 Norte 30 Norte 0 -- -- 76
2019-04-19 06:00:00 15.2 15 Norte 36 Norte 0 -- -- 78
2019-04-19 05:00:00 15.2 17 Norte 30 Norte 0 -- -- 76
2019-04-19 04:00:00 15 15 Norte 35 Norte 0 -- -- 77
2019-04-19 03:00:00 15.2 15 Norte 32 Norte 0 -- -- 77
2019-04-19 02:00:00 15.4 16 Norte 28 Norte 0 -- -- 77
2019-04-19 01:00:00 15.2 16 Norte 29 Norte 0 -- -- 76
2019-04-19 00:00:00 15.2 11 Norte 29 Noroeste 0 -- -- 73
2019-04-18 23:00:00 15.7 17 Norte 39 Norte 0 -- -- 73
2019-04-18 22:00:00 15.6 10 Norte 33 Norte 0 -- -- 73
2019-04-18 21:00:00 15.9 13 Norte 32 Norte 0 -- -- 71
2019-04-18 20:00:00 16.5 15 Norte 34 Noroeste 0 -- -- 71
2019-04-18 19:00:00 17.2 18 Norte 34 Noroeste 0 -- -- 69
2019-04-18 18:00:00 18.5 19 Norte 37 Noroeste 0 -- -- 52
2019-04-18 17:00:00 19.6 19 Norte 41 Noroeste 0 -- -- 54
2019-04-18 16:00:00 19.8 19 Norte 35 Norte 0 -- -- 57
2019-04-18 15:00:00 20.1 17 Norte -- -- -- -- -- 51
2019-04-18 14:00:00 19.6 17 Norte 36 Norte 0 -- -- 59
2019-04-18 13:00:00 19.6 19 Norte 39 Noroeste 0 -- -- 55
2019-04-18 12:00:00 18.7 17 Norte 37 Norte 0 -- -- 61
2019-04-18 11:00:00 18 16 Norte 37 Norte 0 -- -- 65
2019-04-18 10:00:00 17 17 Norte 28 Noroeste 0 -- -- 73
2019-04-18 09:00:00 16 13 Norte 24 Norte 0 -- -- 78
2019-04-18 08:00:00 15.2 11 Norte 24 Norte 0 -- -- 83
2019-04-18 07:00:00 13.8 3 Noroeste 9 Noroeste 0 -- -- 88
2019-04-18 06:00:00 14.2 3 Norte 9 Norte 0 -- -- 86
2019-04-18 05:00:00 14.6 4 Norte 12 Norte 0 -- -- 85
2019-04-18 04:00:00 14.6 4 Norte 10 Noroeste 0 -- -- 85
2019-04-18 03:00:00 14.8 5 Norte 14 Noroeste 0 -- -- 83
2019-04-18 02:00:00 15.5 6 Norte 19 Norte 0 -- -- 83
2019-04-18 01:00:00 16.1 11 Noroeste 24 Noroeste 0 -- -- 84
2019-04-18 00:00:00 16.1 8 Noroeste 15 Norte 0 -- -- 84
2019-04-17 23:00:00 16.3 9 Noroeste 19 Noroeste 0 -- -- 83
2019-04-17 22:00:00 16.7 10 Noroeste 23 Noroeste 0 -- -- 81
2019-04-17 21:00:00 17.4 12 Noroeste 28 Noroeste 0 -- -- 81
2019-04-17 20:00:00 17.7 13 Noroeste 31 Noroeste 0 -- -- 76
2019-04-17 19:00:00 18.6 18 Noroeste 31 Noroeste 0 -- -- 72
2019-04-17 18:00:00 19.7 16 Noroeste 28 Noroeste 0 -- -- 68
2019-04-17 17:00:00 19.9 19 Noroeste 31 Noroeste 0 -- -- 68
2019-04-17 16:00:00 21.4 18 Noroeste 31 Oeste 0 -- -- 67
2019-04-17 15:00:00 19.7 18 Oeste 32 Noroeste 0 -- -- 81
2019-04-17 14:00:00 22 21 Oeste 33 Oeste 0 -- -- 64
2019-04-17 13:00:00 22.2 16 Oeste 29 Oeste 0 -- -- 61
2019-04-17 12:00:00 21.3 15 Oeste 27 Noroeste 0 -- -- 65
2019-04-17 11:00:00 19.2 15 Noroeste 26 Oeste 0 -- -- 72
2019-04-17 10:00:00 18.1 17 Oeste 25 Oeste 0 -- -- 76
2019-04-17 09:00:00 16 11 Oeste 15 Oeste 0 -- -- 89
2019-04-17 08:00:00 14.1 4 Oeste 11 Oeste 0 -- -- 95
2019-04-17 07:00:00 14.2 6 Oeste 11 Oeste 0 -- -- 95
2019-04-17 06:00:00 14.7 9 Oeste 14 Oeste 0 -- -- 97
2019-04-17 05:00:00 14.7 9 Oeste 11 Oeste 0 -- -- 96
2019-04-17 04:00:00 14.7 4 Oeste 7 Oeste 0 -- -- 93
2019-04-17 03:00:00 15.3 5 Oeste 14 Oeste 0 -- -- 92
2019-04-17 02:00:00 15.9 12 Oeste 19 Oeste 0 -- -- 93
2019-04-17 01:00:00 15.3 5 Oeste 11 Oeste 0 -- -- 91
2019-04-17 00:00:00 16.3 9 Noroeste 15 Oeste 0 -- -- 90
2019-04-16 23:00:00 15.7 6 Oeste 15 Noroeste 0 -- -- 88
2019-04-16 22:00:00 16.7 8 Noroeste 14 Norte 0 -- -- 87
2019-04-16 21:00:00 17.4 8 Noroeste 16 Noroeste 0 -- -- 81
2019-04-16 20:00:00 19.2 9 Noroeste 18 Noroeste 0 -- -- 73
2019-04-16 19:00:00 20.8 12 Noroeste 24 Noroeste 0 -- -- 69
2019-04-16 18:00:00 21.6 14 Noroeste 23 Noroeste 0 -- -- 66
2019-04-16 17:00:00 22.7 15 Noroeste 42 Sudoeste 0 -- -- 62
2019-04-16 16:00:00 23.6 20 Sudoeste 33 Sudoeste 0 -- -- 60
2019-04-16 15:00:00 23.8 17 Este 26 Este 0 -- -- 49
2019-04-16 14:00:00 23.2 14 Este 24 Este 0 -- -- 46
2019-04-16 13:00:00 21.7 8 Nordeste 21 Este 0 -- -- 54
2019-04-16 12:00:00 20.1 9 Nordeste 21 Este 0 -- -- 66
2019-04-16 11:00:00 19 12 Este 26 Este 0 -- -- 73
2019-04-16 10:00:00 17.9 14 Nordeste 24 Este 0 -- -- 77
2019-04-16 09:00:00 16.2 10 Nordeste 22 Nordeste 0 -- -- 86
2019-04-16 08:00:00 15.4 8 Este 20 Este 0 -- -- 92
2019-04-16 07:00:00 15.4 10 Este 18 Nordeste 0 -- -- 90
2019-04-16 06:00:00 15.4 9 Nordeste 15 Nordeste 0 -- -- 92
2019-04-16 05:00:00 15.6 10 Nordeste 19 Nordeste 0 -- -- 90
2019-04-16 04:00:00 15.6 12 Este 23 Este 0 -- -- 91
2019-04-16 03:00:00 16 14 Este 24 Este 0 -- -- 90
2019-04-16 02:00:00 16.2 15 Este 31 Este 0 -- -- 89
2019-04-16 01:00:00 16.4 17 Nordeste 29 Nordeste 0 -- -- 89
2019-04-16 00:00:00 16.4 16 Nordeste 27 Nordeste 0 -- -- 87
2019-04-15 23:00:00 16.8 15 Este 26 Este 0 -- -- 89
2019-04-15 22:00:00 17.2 13 Nordeste 18 Este 0 -- -- 88
2019-04-15 21:00:00 17.3 12 Nordeste 23 Nordeste 0 -- -- 83
2019-04-15 20:00:00 18.8 15 Nordeste 23 Nordeste 0 -- -- 70
2019-04-15 19:00:00 19.6 14 Nordeste 24 Este 0 -- -- 65
2019-04-15 18:00:00 20 15 Nordeste 27 Este 0 -- -- 64
2019-04-15 17:00:00 21 16 Nordeste 28 Nordeste 0 -- -- 61
2019-04-15 16:00:00 21.9 16 Nordeste 35 Este 0 -- -- 56
2019-04-15 15:00:00 22.1 15 Este 32 Este 0 -- -- 59
2019-04-15 14:00:00 22.2 13 Este 29 Sudeste 0 -- -- 57
2019-04-15 13:00:00 21.7 13 Nordeste 25 Nordeste 0 -- -- 58
2019-04-15 12:00:00 20.4 12 Nordeste 22 Este 0 -- -- 62
2019-04-15 11:00:00 19.4 12 Nordeste 22 Nordeste 0 -- -- 68
2019-04-15 10:00:00 17.8 14 Norte 24 Norte 0 -- -- 76
2019-04-15 09:00:00 16.7 6 Noroeste 20 Norte 0 -- -- 83
2019-04-15 08:00:00 14.9 4 Norte 11 Norte 0 -- -- 86
2019-04-15 07:00:00 14.7 5 Noroeste 13 Noroeste 0 -- -- 87
2019-04-15 06:00:00 14.1 4 Oeste 13 Noroeste 0 -- -- 85
2019-04-15 05:00:00 15.3 11 Noroeste 27 Noroeste 0 -- -- 83
2019-04-15 04:00:00 15.4 13 Noroeste 23 Noroeste 0 -- -- 86
2019-04-15 03:00:00 14.9 11 Noroeste 19 Oeste 0 -- -- 91
2019-04-15 02:00:00 14.7 13 Oeste 18 Oeste 0 -- -- 91
2019-04-15 01:00:00 15.2 14 Oeste 19 Oeste 0 -- -- 90
2019-04-15 00:00:00 15.4 11 Oeste 21 Oeste 0 -- -- 91
2019-04-14 23:00:00 15.5 13 Oeste 24 Noroeste 0 -- -- 89
2019-04-14 22:00:00 16.3 18 Oeste 27 Oeste 0 -- -- 88
2019-04-14 21:00:00 16.4 15 Oeste 30 Oeste 0 -- -- 85
2019-04-14 20:00:00 17.4 21 Noroeste 30 Noroeste 0 -- -- 81
2019-04-14 19:00:00 20 19 Oeste 29 Oeste 0 -- -- 71
2019-04-14 18:00:00 20.9 19 Noroeste 28 Noroeste 0 -- -- 66
2019-04-14 17:00:00 22.1 19 Noroeste 28 Noroeste 0 -- -- 64
2019-04-14 16:00:00 22.4 18 Oeste 27 Noroeste 0 -- -- 63
2019-04-14 15:00:00 22.4 16 Oeste 27 Oeste 0 -- -- 63
2019-04-14 14:00:00 23.4 10 Noroeste 24 Oeste 0 -- -- 61
2019-04-14 13:00:00 23.5 12 Oeste 24 Oeste 0 -- -- 59
2019-04-14 12:00:00 21.7 6 Este 19 Este 0 -- -- 58
2019-04-14 11:00:00 19.9 12 Este 24 Este 0 -- -- 64
2019-04-14 10:00:00 18.7 11 Este 22 Nordeste 0 -- -- 67
2019-04-14 09:00:00 15.5 3 Sudeste 11 Oeste 0 -- -- 82
2019-04-14 08:00:00 13.4 5 Sur 19 Este 0 -- -- 86
2019-04-14 07:00:00 12.8 5 Sudeste 8 Sudeste 0 -- -- 93
2019-04-14 06:00:00 13 4 Este 8 Este 0 -- -- 92
2019-04-14 05:00:00 12 2 Oeste 8 Nordeste 0 -- -- 87
2019-04-14 04:00:00 12.7 0 Calma 7 Este 0 -- -- 83
2019-04-14 03:00:00 13.6 4 Este 9 Este 0 -- -- 81
2019-04-14 02:00:00 14 6 Este 11 Este 0 -- -- 87
2019-04-14 01:00:00 14.5 8 Este 11 Este 0 -- -- 85
2019-04-14 00:00:00 14.9 6 Este 14 Nordeste 0 -- -- 85
2019-04-13 23:00:00 15.4 6 Nordeste 20 Norte 0 -- -- 85
2019-04-13 22:00:00 15.8 12 Norte 25 Norte 0 -- -- 85
2019-04-13 21:00:00 16.1 18 Norte 33 Norte 0 -- -- 84
2019-04-13 20:00:00 17.3 19 Norte 36 Norte 0 -- -- 78
2019-04-13 19:00:00 18.8 19 Norte 39 Norte 0 -- -- 72
2019-04-13 18:00:00 19.9 17 Norte 38 Norte 0 -- -- 68
2019-04-13 17:00:00 20.9 19 Norte 33 Norte 0 -- -- 64
2019-04-13 16:00:00 21.3 15 Norte 33 Norte 0 -- -- 62
2019-04-13 15:00:00 21.7 19 Norte 35 Norte 0 -- -- 58
2019-04-13 14:00:00 21.8 17 Nordeste 30 Nordeste 0 -- -- 59
2019-04-13 13:00:00 20.8 17 Norte 30 Nordeste 0 -- -- 62
2019-04-13 12:00:00 19.9 18 Norte 32 Nordeste 0 -- -- 61
2019-04-13 11:00:00 18.6 16 Nordeste 27 Nordeste 0 -- -- 66
2019-04-13 10:00:00 17.1 14 Nordeste 21 Nordeste 0 -- -- 74
2019-04-13 09:00:00 15.2 9 Nordeste 14 Norte 0 -- -- 83
2019-04-13 08:00:00 13 4 Este 19 Norte 0 -- -- 87
2019-04-13 07:00:00 13.8 12 Norte 23 Norte 0 -- -- 84
2019-04-13 06:00:00 14.2 16 Norte 32 Norte 0 -- -- 82
2019-04-13 05:00:00 14.5 16 Norte 33 Norte 0 -- -- 81
2019-04-13 04:00:00 14.4 16 Norte 30 Norte 0 -- -- 80
2019-04-13 03:00:00 14.5 14 Norte 33 Norte 0 -- -- 79
2019-04-13 02:00:00 14.9 21 Norte 40 Norte 0 -- -- 78
2019-04-13 01:00:00 15 22 Norte 37 Norte 0 -- -- 77
2019-04-13 00:00:00 15.1 15 Norte 34 Norte 0 -- -- 75
2019-04-12 23:00:00 15.5 21 Norte 38 Norte 0 -- -- 74
2019-04-12 22:00:00 15.9 17 Norte 34 Norte 0 -- -- 79
2019-04-12 21:00:00 16.1 18 Norte 37 Norte 0 -- -- 79
2019-04-12 20:00:00 16.6 17 Norte 39 Norte 0 -- -- 75
2019-04-12 19:00:00 18.2 19 Norte 39 Norte 0 -- -- 66
2019-04-12 18:00:00 18.7 21 Norte 42 Norte 0 -- -- 67
2019-04-12 17:00:00 19.6 22 Norte 39 Norte 0 -- -- 59
2019-04-12 16:00:00 19.9 21 Norte 42 Norte 0 -- -- 56
2019-04-12 15:00:00 20.1 19 Norte 42 Norte 0 -- -- 56
2019-04-12 14:00:00 20.1 20 Norte 42 Norte 0 -- -- 55
2019-04-12 13:00:00 19.6 18 Norte 36 Norte 0 -- -- 56
2019-04-12 12:00:00 18.8 19 Norte 37 Nordeste 0 -- -- 57
2019-04-12 11:00:00 18 20 Norte 36 Nordeste 0 -- -- 60
2019-04-12 10:00:00 17.1 17 Norte 33 Norte 0 -- -- 67
2019-04-12 09:00:00 15.5 15 Norte 30 Norte 0 -- -- 70
2019-04-12 08:00:00 14.1 10 Norte 18 Nordeste 0 -- -- 76
2019-04-12 07:00:00 14.2 16 Norte 31 Norte 0 -- -- 75
2019-04-12 06:00:00 13.9 16 Norte 29 Nordeste 0 -- -- 74
2019-04-12 05:00:00 14.1 15 Norte 33 Norte 0 -- -- 75
2019-04-12 04:00:00 14.4 18 Norte 33 Norte 0 -- -- 74
2019-04-12 03:00:00 14.7 19 Norte 34 Norte 0 -- -- 75
2019-04-12 02:00:00 14.9 18 Norte 36 Nordeste 0 -- -- 75
2019-04-12 01:00:00 15.3 17 Norte 36 Norte 0 -- -- 73
2019-04-12 00:00:00 15.5 23 Norte 41 Norte 0 -- -- 71
2019-04-11 23:00:00 15.4 21 Norte 41 Norte 0 -- -- 71
2019-04-11 22:00:00 15.4 19 Norte 38 Nordeste 0 -- -- 72
2019-04-11 21:00:00 15.5 17 Norte 36 Norte 0 -- -- 72
2019-04-11 20:00:00 15.7 19 Norte 42 Norte 0 -- -- 71
2019-04-11 19:00:00 17.1 23 Norte 45 Norte 0 -- -- 66
2019-04-11 18:00:00 18.3 21 Norte 43 Norte 0 -- -- 61
2019-04-11 17:00:00 18.9 23 Norte 45 Noroeste 0 -- -- 61
2019-04-11 16:00:00 19.2 22 Norte 47 Norte 0 -- -- 60
2019-04-11 15:00:00 19.6 24 Norte 41 Norte 0 -- -- 58
2019-04-11 14:00:00 19.3 23 Norte 45 Noroeste 0 -- -- 59
2019-04-11 13:00:00 18.8 22 Norte 39 Nordeste 0 -- -- 61
2019-04-11 12:00:00 18.7 18 Norte 39 Norte 0 -- -- 59
2019-04-11 11:00:00 17.5 19 Norte 35 Norte 0 -- -- 62
2019-04-11 10:00:00 16.5 18 Norte 32 Nordeste 0 -- -- 73
2019-04-11 09:00:00 15.4 22 Norte 40 Norte 0 -- -- 70
2019-04-11 08:00:00 15 18 Norte 36 Norte 0 -- -- 72
2019-04-11 07:00:00 15 13 Norte 30 Norte 0 -- -- 77
2019-04-11 06:00:00 14.9 19 Norte 34 Norte 0 -- -- 73
2019-04-11 05:00:00 14.8 13 Norte 32 Norte 0 -- -- 75
2019-04-11 04:00:00 14.7 11 Norte 28 Norte 0 -- -- 76
2019-04-11 03:00:00 14.7 12 Norte 27 Norte 0 -- -- 75
2019-04-11 02:00:00 15.2 17 Norte 33 Norte 0 -- -- 75
2019-04-11 01:00:00 15.3 21 Norte 39 Norte 0 -- -- 72
2019-04-11 00:00:00 15.5 19 Norte 39 Nordeste 0 -- -- 72
2019-04-10 23:00:00 15.7 18 Norte 36 Nordeste 0 -- -- 71
2019-04-10 22:00:00 15.9 14 Norte 36 Noroeste 0 -- -- 75
2019-04-10 21:00:00 15.9 20 Norte 47 Norte 0 -- -- 71
2019-04-10 20:00:00 16 19 Norte 40 Norte 0 -- -- 70
2019-04-10 19:00:00 17.1 21 Norte 45 Noroeste 0 -- -- 72
2019-04-10 18:00:00 17.8 24 Norte 43 Norte 0 -- -- 64
2019-04-10 17:00:00 19 19 Norte 39 Norte 0 -- -- 60
2019-04-10 16:00:00 18.2 23 Norte 43 Norte 0 -- -- 61
2019-04-10 15:00:00 18.5 19 Norte 41 Norte 0 -- -- 65
2019-04-10 14:00:00 18.8 21 Norte 40 Norte 0 -- -- 59
2019-04-10 13:00:00 18.9 19 Norte 35 Norte 0 -- -- 58
2019-04-10 12:00:00 18.1 19 Norte 36 Norte 0 -- -- 61
2019-04-10 11:00:00 16.8 17 Norte 36 Norte 0 -- -- 64
2019-04-10 10:00:00 16.4 20 Nordeste 34 Nordeste 0 -- -- 62
2019-04-10 09:00:00 15.4 17 Nordeste 30 Nordeste 0 -- -- 65
2019-04-10 08:00:00 14.8 15 Norte 29 Norte 0 -- -- 67
2019-04-10 07:00:00 14.7 13 Norte 32 Nordeste 0 -- -- 68
2019-04-10 06:00:00 14.9 14 Norte 36 Norte 0 -- -- 67
2019-04-10 05:00:00 15 15 Norte 33 Norte 0 -- -- 67
2019-04-10 04:00:00 15.1 16 Norte 30 Nordeste 0 -- -- 75
2019-04-10 03:00:00 14.6 13 Norte 31 Norte 0 -- -- 69
2019-04-10 02:00:00 15.2 17 Norte 30 Norte 0 -- -- 67
2019-04-10 01:00:00 15.1 17 Norte 32 Nordeste 0 -- -- 67
2019-04-10 00:00:00 15.5 17 Norte 35 Norte 0 -- -- 72
2019-04-09 23:00:00 15.3 13 Norte 31 Norte 0 -- -- 68
2019-04-09 22:00:00 15.5 16 Norte 31 Norte 0 -- -- 67
2019-04-09 21:00:00 15.5 15 Norte 32 Norte 0 -- -- 68
2019-04-09 20:00:00 16.6 18 Norte 32 Norte 0 -- -- 67
2019-04-09 19:00:00 18.3 17 Norte 31 Norte 0 -- -- 63
2019-04-09 18:00:00 19.6 15 Norte 30 Noroeste 0 -- -- 59
2019-04-09 17:00:00 19.9 18 Norte 37 Noroeste 0 -- -- 58
2019-04-09 16:00:00 20.3 17 Norte 34 Norte 0 -- -- 58
2019-04-09 15:00:00 19.4 19 Norte 34 Norte 0 -- -- 66
2019-04-09 14:00:00 20 14 Norte 31 Norte 0 -- -- 63
2019-04-09 13:00:00 19.4 15 Norte 30 Noroeste 0 -- -- 65
2019-04-09 12:00:00 18.9 17 Norte 28 Noroeste 0 -- -- 66
2019-04-09 11:00:00 17.8 14 Norte 28 Nordeste 0 -- -- 71
2019-04-09 10:00:00 16.7 12 Nordeste 22 Norte 0 -- -- 83
2019-04-09 09:00:00 16.3 6 Norte 11 Norte 0 -- -- 89
2019-04-09 08:00:00 15.5 4 Este 12 Norte 0 -- -- 87
2019-04-09 07:00:00 15.1 5 Norte 11 Noroeste 0 -- -- 88
2019-04-09 06:00:00 14.2 3 Nordeste 8 Norte 0 -- -- 88
2019-04-09 05:00:00 14.4 5 Nordeste 10 Nordeste 0 -- -- 88
2019-04-09 04:00:00 14.4 4 Nordeste 16 Nordeste 0 -- -- 85
2019-04-09 03:00:00 15 8 Norte 21 Norte 0 -- -- 82
2019-04-09 02:00:00 15.3 9 Norte 19 Norte 0 -- -- 79
2019-04-09 01:00:00 15.2 8 Norte 20 Norte 0 -- -- 76
2019-04-09 00:00:00 15.1 10 Norte 21 Norte 0 -- -- 72
2019-04-08 23:00:00 15.5 8 Norte 22 Noroeste 0 -- -- 68
2019-04-08 22:00:00 16.1 11 Norte 21 Norte 0 -- -- 66
2019-04-08 21:00:00 16.4 13 Norte 25 Noroeste 0 -- -- 68
2019-04-08 20:00:00 17.6 14 Noroeste 33 Noroeste 0 -- -- 63
2019-04-08 19:00:00 18.6 16 Norte 34 Norte 0 -- -- 58
2019-04-08 18:00:00 19.8 14 Norte 33 Noroeste 0 -- -- 55
2019-04-08 17:00:00 19.8 17 Norte -- -- -- -- -- 56
2019-04-08 16:00:00 20 17 Norte 32 Norte 0 -- -- 57
2019-04-08 15:00:00 20.2 17 Norte 33 Noroeste 0 -- -- 61
2019-04-08 14:00:00 20.2 13 Norte 29 Noroeste 0 -- -- 57
2019-04-08 13:00:00 19.9 13 Noroeste 30 Noroeste 0 -- -- 54
2019-04-08 12:00:00 18.4 13 Noroeste 27 Noroeste 0 -- -- 73
2019-04-08 11:00:00 17.7 10 Norte 18 Norte 0 -- -- 76
2019-04-08 10:00:00 15.5 6 Noroeste 14 Norte 0 -- -- 93
2019-04-08 09:00:00 14.4 6 Noroeste 16 Noroeste 0 -- -- 96
2019-04-08 08:00:00 14 4 Noroeste 14 Norte 0.2 -- -- 95
2019-04-08 07:00:00 13.1 0 Calma 4 Nordeste 0 -- -- 93
2019-04-08 06:00:00 13.4 0 Calma 16 Norte 0 -- -- 90
2019-04-08 05:00:00 14.5 6 Norte 17 Norte 0 -- -- 90
2019-04-08 04:00:00 14.9 7 Norte 17 Norte 0 -- -- 90
2019-04-08 03:00:00 14.8 8 Norte 16 Norte 0 -- -- 89
2019-04-08 02:00:00 14.1 0 Calma 8 Norte 0 -- -- 89
2019-04-08 01:00:00 14.8 4 Norte 10 Norte 0 -- -- 88
2019-04-08 00:00:00 15 4 Norte 13 Noroeste 0 -- -- 86
2019-04-07 23:00:00 15.7 7 Noroeste 20 Norte 0 -- -- 85
2019-04-07 22:00:00 16.3 9 Norte 19 Norte 0 -- -- 84
2019-04-07 21:00:00 16.4 9 Noroeste 23 Norte 0 -- -- 80
2019-04-07 20:00:00 17.4 12 Noroeste 24 Noroeste 0 -- -- 75
2019-04-07 19:00:00 18.2 13 Noroeste 28 Noroeste 0 -- -- 71
2019-04-07 18:00:00 18.8 17 Noroeste 31 Noroeste 0 -- -- 69
2019-04-07 17:00:00 20 15 Noroeste 27 Noroeste 0 -- -- 62
2019-04-07 16:00:00 19.5 17 Noroeste 31 Noroeste 0 -- -- 66
2019-04-07 15:00:00 19.8 17 Noroeste 34 Noroeste 0 -- -- 65
2019-04-07 14:00:00 20.1 17 Noroeste 31 Noroeste 0 -- -- 66
2019-04-07 13:00:00 20 15 Noroeste 32 Noroeste 0 -- -- 65
2019-04-07 12:00:00 18.8 14 Norte 28 Norte 0 -- -- 69
2019-04-07 11:00:00 18 15 Noroeste 28 Noroeste 0 -- -- 73
2019-04-07 10:00:00 17.3 14 Noroeste 25 Noroeste 0 -- -- 77
2019-04-07 09:00:00 14.5 4 Noroeste 10 Noroeste 0 -- -- 89
2019-04-07 08:00:00 12.5 4 Noroeste 9 Noroeste 0 -- -- 88
2019-04-07 07:00:00 12.3 5 Noroeste 8 Noroeste 0 -- -- 87
2019-04-07 06:00:00 12 4 Oeste 6 Noroeste 0 -- -- 86
2019-04-07 05:00:00 12.8 0 Calma 6 Noroeste 0 -- -- 84
2019-04-07 04:00:00 13.7 2 Norte 9 Noroeste 0 -- -- 83
2019-04-07 03:00:00 14.7 5 Norte 14 Nordeste 0 -- -- 79
2019-04-07 02:00:00 14.6 4 Norte 14 Norte 0 -- -- 74
2019-04-07 01:00:00 14.3 6 Nordeste 16 Nordeste 0 -- -- 73
2019-04-07 00:00:00 14.7 9 Norte 25 Norte 0 -- -- 71
2019-04-06 23:00:00 15.1 11 Norte 25 Norte 0 -- -- 71
2019-04-06 22:00:00 15 10 Norte 26 Noroeste 0 -- -- 71
2019-04-06 21:00:00 15.4 10 Norte 27 Norte 0 -- -- 70
2019-04-06 20:00:00 16.3 15 Norte 34 Noroeste 0 -- -- 68
2019-04-06 19:00:00 17.2 17 Noroeste 38 Noroeste 0 -- -- 62
2019-04-06 18:00:00 17.8 18 Noroeste 40 Noroeste 0 -- -- 59
2019-04-06 17:00:00 18 22 Noroeste 39 Norte 0 -- -- 54
2019-04-06 16:00:00 18.3 20 Noroeste 40 Noroeste 0 -- -- 58
2019-04-06 15:00:00 18.8 21 Noroeste 37 Noroeste 0 -- -- 54
2019-04-06 14:00:00 17.4 17 Norte 37 Norte 0 -- -- 62
2019-04-06 13:00:00 17.9 24 Noroeste 44 Noroeste 0 -- -- 58
2019-04-06 12:00:00 17.5 21 Noroeste 41 Norte 0 -- -- 61
2019-04-06 11:00:00 16.9 17 Norte 40 Noroeste 0 -- -- 55
2019-04-06 10:00:00 15.9 17 Noroeste 34 Noroeste 0 -- -- 67
2019-04-06 09:00:00 14.8 12 Norte 30 Norte 0 -- -- 76
2019-04-06 08:00:00 13.5 9 Noroeste 22 Noroeste 0 -- -- 77
2019-04-06 07:00:00 13.8 9 Noroeste 21 Noroeste 0 -- -- 74
2019-04-06 06:00:00 13.5 5 Noroeste 21 Norte 0 -- -- 79
2019-04-06 05:00:00 13.7 8 Noroeste 22 Norte 0 -- -- 77
2019-04-06 04:00:00 14 10 Noroeste 27 Norte 0 -- -- 79
2019-04-06 03:00:00 13.6 8 Norte 17 Noroeste 0 -- -- 84
2019-04-06 02:00:00 13.6 12 Noroeste 26 Noroeste 0 -- -- 84
2019-04-06 01:00:00 13.9 13 Norte 30 Norte 0 -- -- 88
2019-04-06 00:00:00 14.9 12 Norte 28 Noroeste 0 -- -- 81
2019-04-05 23:00:00 14.8 15 Noroeste 39 Noroeste 0 -- -- 74
2019-04-05 22:00:00 15.2 14 Norte 32 Noroeste 0 -- -- 82
2019-04-05 21:00:00 15.8 17 Noroeste 32 Noroeste 0 -- -- 69
2019-04-05 20:00:00 16.3 19 Noroeste 36 Noroeste 0 -- -- 69
2019-04-05 19:00:00 15.9 20 Noroeste 40 Noroeste 0 -- -- 69
2019-04-05 18:00:00 16.1 27 Noroeste 41 Noroeste 0 -- -- 81
2019-04-05 17:00:00 17.9 25 Noroeste 44 Noroeste 0 -- -- 70
2019-04-05 16:00:00 16.8 25 Noroeste 43 Noroeste 0.4 -- -- 83
2019-04-05 15:00:00 20.1 26 Noroeste 45 Oeste 0 -- -- 62
2019-04-05 14:00:00 19.7 29 Noroeste 49 Oeste 0 -- -- 62
2019-04-05 13:00:00 19.1 25 Noroeste 40 Noroeste 0 -- -- 61
2019-04-05 12:00:00 19 24 Oeste 33 Oeste 0 -- -- 64
2019-04-05 11:00:00 17.2 18 Oeste 27 Oeste 0 -- -- 80
2019-04-05 10:00:00 13.5 10 Noroeste 35 Noroeste 0 -- -- 91
2019-04-05 09:00:00 15.2 12 Noroeste 18 Noroeste 0 -- -- 80
2019-04-05 08:00:00 11.6 5 Noroeste 9 Noroeste 0 -- -- 85
2019-04-05 07:00:00 11.9 4 Noroeste 10 Noroeste 0 -- -- 83
2019-04-05 06:00:00 12.8 6 Noroeste 17 Noroeste 0 -- -- 82
2019-04-05 05:00:00 12 6 Noroeste 12 Noroeste 0 -- -- 85
2019-04-05 04:00:00 13.1 5 Noroeste 17 Noroeste 0 -- -- 85
2019-04-05 03:00:00 12.6 7 Noroeste 15 Noroeste 0 -- -- 83
2019-04-05 02:00:00 13.2 8 Noroeste 17 Oeste 0 -- -- 81
2019-04-05 01:00:00 14.1 10 Noroeste 18 Noroeste 0 -- -- 80
2019-04-05 00:00:00 14.4 9 Noroeste 18 Noroeste 0 -- -- 80
2019-04-04 23:00:00 14.6 9 Noroeste 19 Noroeste 0 -- -- 80
2019-04-04 22:00:00 15.2 11 Noroeste 27 Noroeste 0 -- -- 81
2019-04-04 21:00:00 15.5 14 Noroeste 28 Noroeste 0 -- -- 76
2019-04-04 20:00:00 16.5 15 Noroeste 27 Noroeste 0 -- -- 70
2019-04-04 19:00:00 18.1 16 Noroeste 31 Noroeste 0 -- -- 67
2019-04-04 18:00:00 18.3 16 Noroeste 32 Noroeste 0 -- -- 65
2019-04-04 17:00:00 18.7 17 Noroeste 30 Noroeste 0 -- -- 64
2019-04-04 16:00:00 19 14 Noroeste 30 Noroeste 0 -- -- 65
2019-04-04 15:00:00 18.7 15 Noroeste 31 Norte 0 -- -- 63
2019-04-04 14:00:00 20.1 16 Noroeste 33 Oeste 0 -- -- 61
2019-04-04 13:00:00 18.1 17 Noroeste 32 Noroeste 0 -- -- 66
2019-04-04 12:00:00 18.4 15 Noroeste 27 Oeste 0 -- -- 65
2019-04-04 11:00:00 18.3 10 Noroeste 20 Noroeste 0 -- -- 72
2019-04-04 10:00:00 16.4 6 Noroeste 20 Norte 0 -- -- 87
2019-04-04 09:00:00 15 9 Norte 18 Noroeste 0 -- -- 91
2019-04-04 08:00:00 14.2 8 Noroeste 19 Oeste 0 -- -- 92
2019-04-04 07:00:00 14.2 10 Noroeste 17 Noroeste 0 -- -- 91
2019-04-04 06:00:00 14.2 12 Oeste 19 Oeste 0 -- -- 90
2019-04-04 05:00:00 14.6 13 Oeste 23 Oeste 0 -- -- 90
2019-04-04 04:00:00 14.3 12 Oeste 18 Oeste 0 -- -- 90
2019-04-04 03:00:00 14.4 9 Sudoeste 15 Sudoeste 0 -- -- 88
2019-04-04 02:00:00 14.1 4 Sudoeste 12 Oeste 0 -- -- 87
2019-04-04 01:00:00 14.6 8 Oeste 14 Oeste 0 -- -- 85
2019-04-04 00:00:00 14.7 9 Oeste 18 Oeste 0 -- -- 85
2019-04-03 23:00:00 15.5 12 Oeste 17 Oeste 0 -- -- 82
2019-04-03 22:00:00 16.1 11 Oeste 25 Noroeste 0 -- -- 80
2019-04-03 21:00:00 16.4 15 Oeste 28 Oeste 0 -- -- 79
2019-04-03 20:00:00 17.3 17 Noroeste 30 Oeste 0 -- -- 76
2019-04-03 19:00:00 18.3 19 Noroeste 33 Oeste 0 -- -- 72
2019-04-03 18:00:00 19.8 24 Oeste 37 Oeste 0 -- -- 62
2019-04-03 17:00:00 20.2 24 Oeste 45 Oeste 0 -- -- 61
2019-04-03 16:00:00 19.2 30 Oeste 45 Oeste 0 -- -- 67
2019-04-03 15:00:00 20.1 29 Oeste 41 Oeste 0 -- -- 70
2019-04-03 14:00:00 17.9 22 Oeste 34 Oeste 0.8 -- -- 90
2019-04-03 13:00:00 19 19 Oeste 36 Oeste 0 -- -- 76
2019-04-03 12:00:00 20 21 Oeste 31 Oeste 0 -- -- 71
2019-04-03 11:00:00 18.1 23 Oeste 36 Oeste 0 -- -- 79
2019-04-03 10:00:00 18 16 Oeste 27 Oeste 0 -- -- 83
2019-04-03 09:00:00 15.7 13 Oeste 21 Oeste 0 -- -- 97
2019-04-03 08:00:00 14.2 13 Oeste 20 Oeste 0 -- -- 97
2019-04-03 07:00:00 14.2 12 Oeste 16 Oeste 0 -- -- 97
2019-04-03 06:00:00 13.8 11 Oeste 15 Oeste 0 -- -- 96
2019-04-03 05:00:00 14 8 Oeste 13 Oeste 0 -- -- 96
2019-04-03 04:00:00 14.2 9 Oeste 12 Oeste 0 -- -- 95
2019-04-03 03:00:00 14.7 10 Oeste 15 Oeste 0 -- -- 95
2019-04-03 02:00:00 15 9 Oeste 15 Oeste -- -- -- 95
2019-04-03 01:00:00 14.9 10 Oeste 13 Oeste 0 -- -- 95
2019-04-03 00:00:00 15.2 8 Oeste 10 Oeste 0 -- -- 92
2019-04-02 23:00:00 15.7 5 Oeste 12 Noroeste 0 -- -- 89
2019-04-02 22:00:00 16.4 8 Noroeste 18 Noroeste 0 -- -- 88
2019-04-02 21:00:00 17 12 Noroeste 26 Noroeste 0 -- -- 84
2019-04-02 20:00:00 18.4 15 Noroeste 29 Noroeste 0 -- -- 72
2019-04-02 19:00:00 20.1 19 Noroeste 30 Noroeste 0 -- -- 65
2019-04-02 18:00:00 21.4 14 Noroeste 31 Noroeste 0 -- -- 62
2019-04-02 17:00:00 22.3 15 Norte 27 Norte 0 -- -- 62
2019-04-02 16:00:00 21.5 19 Nordeste 32 Nordeste 0 -- -- 63
2019-04-02 15:00:00 21.8 13 Este 27 Este 0 -- -- 55
2019-04-02 14:00:00 21 15 Este 33 Este 0 -- -- 63
2019-04-02 13:00:00 20.2 21 Este 37 Este 0 -- -- 66
2019-04-02 12:00:00 19.5 19 Este 31 Sudeste 0 -- -- 68
2019-04-02 11:00:00 18.5 15 Este 31 Este 0 -- -- 74
2019-04-02 10:00:00 17.1 18 Este 30 Este 0 -- -- 82
2019-04-02 09:00:00 15.9 16 Este 27 Este 0 -- -- 89
2019-04-02 08:00:00 14.9 14 Este 28 Este 0 -- -- 92
2019-04-02 07:00:00 14.6 17 Este 26 Este 0 -- -- 91
2019-04-02 06:00:00 14.5 18 Este 25 Este 0 -- -- 91
2019-04-02 05:00:00 14.4 14 Este 26 Este 0 -- -- 91
2019-04-02 04:00:00 14.6 15 Este 24 Este 0 -- -- 92
2019-04-02 03:00:00 14.9 11 Este 24 Este 0 -- -- 91
2019-04-02 02:00:00 14.9 11 Este 18 Este 0 -- -- 91
2019-04-02 01:00:00 14.5 6 Sudeste 10 Este 0 -- -- 88
2019-04-02 00:00:00 14.6 6 Este 9 Este 0 -- -- 88
2019-04-01 23:00:00 14.7 4 Este 7 Este 0 -- -- 84
2019-04-01 22:00:00 15.3 4 Este 11 Este 0 -- -- 82
2019-04-01 21:00:00 16.2 6 Este 12 Este 0 -- -- 77
2019-04-01 20:00:00 17.2 9 Este 17 Este 0 -- -- 73
2019-04-01 19:00:00 17.4 9 Sudeste 21 Este 0 -- -- 74
2019-04-01 18:00:00 18.4 13 Este 22 Sudeste 0 -- -- 69
2019-04-01 17:00:00 17.9 8 Nordeste 13 Sudeste 0 -- -- 73
2019-04-01 16:00:00 16.8 9 Sudeste 40 Este 0.8 -- -- 82
2019-04-01 15:00:00 18.8 14 Nordeste 23 Este 0 -- -- 66
2019-04-01 14:00:00 18.4 13 Sudeste 20 Sudeste 0 -- -- 70
2019-04-01 13:00:00 20 5 Oeste 17 Sudoeste 0 -- -- 60
2019-04-01 12:00:00 19.9 6 Oeste 18 Noroeste 0 -- -- 61
2019-04-01 11:00:00 18.7 6 Noroeste 13 Noroeste 0 -- -- 67
2019-04-01 10:00:00 16.9 6 Norte 12 Noroeste 0 -- -- 78
2019-04-01 09:00:00 14.3 2 Sur 4 Oeste 0 -- -- 93
2019-04-01 08:00:00 12.8 3 Sudoeste 6 Sur 0 -- -- 92
2019-04-01 07:00:00 13.3 2 Noroeste 7 Noroeste 0 -- -- 92
2019-04-01 06:00:00 13.8 6 Noroeste 13 Noroeste 0 -- -- 92
2019-04-01 05:00:00 14.1 3 Oeste 7 Noroeste 0 -- -- 92
2019-04-01 04:00:00 14.3 4 Noroeste 6 Noroeste 0 -- -- 91
2019-04-01 03:00:00 14.5 3 Noroeste 8 Noroeste 0 -- -- 90
2019-04-01 02:00:00 14.9 5 Noroeste 8 Noroeste 0 -- -- 89
2019-04-01 01:00:00 15.3 4 Noroeste 6 Noroeste 0 -- -- 89
2019-04-01 00:00:00 15.6 3 Noroeste 9 Noroeste 0 -- -- 89
2019-03-31 23:00:00 15.9 5 Oeste 13 Oeste 0 -- -- 89
2019-03-31 22:00:00 15.8 9 Oeste 22 Oeste 0 -- -- 90
2019-03-31 21:00:00 16.4 15 Oeste 32 Oeste 0 -- -- 85
2019-03-31 20:00:00 16.9 23 Oeste 35 Oeste 0 -- -- 84
2019-03-31 19:00:00 17.4 25 Oeste 36 Oeste 0 -- -- 83
2019-03-31 18:00:00 17.8 23 Oeste 34 Oeste 0 -- -- 79
2019-03-31 17:00:00 19 22 Oeste 35 Oeste 0 -- -- 66
2019-03-31 16:00:00 20 20 Oeste 32 Oeste 0 -- -- 65
2019-03-31 15:00:00 20 22 Oeste 32 Oeste 0 -- -- 64
2019-03-31 14:00:00 20.2 20 Oeste 31 Oeste 0 -- -- 65
2019-03-31 13:00:00 20.7 18 Oeste 31 Oeste 0 -- -- 62
2019-03-31 12:00:00 19.4 21 Oeste 33 Oeste 0 -- -- 67
2019-03-31 11:00:00 18.8 17 Oeste 27 Noroeste 0 -- -- 68
2019-03-31 10:00:00 17.5 19 Oeste 28 Oeste 0 -- -- 76
2019-03-31 09:00:00 15.3 11 Oeste 15 Oeste 0 -- -- 85
2019-03-31 08:00:00 13.2 8 Oeste 15 Oeste 0 -- -- 88
2019-03-31 07:00:00 13.6 11 Oeste 18 Oeste 0 -- -- 87
2019-03-31 06:00:00 13.9 12 Oeste 22 Oeste 0 -- -- 86
2019-03-31 05:00:00 13.5 13 Noroeste 20 Oeste 0 -- -- 89
2019-03-31 04:00:00 13.2 10 Oeste 17 Oeste 0 -- -- 89
2019-03-31 00:00:00 14.1 8 Noroeste 13 Noroeste 0 -- -- 86
2019-03-30 23:00:00 14.4 10 Noroeste 16 Noroeste 0 -- -- 83
2019-03-30 22:00:00 15.3 10 Noroeste 16 Noroeste 0 -- -- 82
2019-03-30 21:00:00 15.4 11 Noroeste 20 Noroeste 0 -- -- 77
2019-03-30 20:00:00 15.7 10 Noroeste 19 Noroeste 0 -- -- 74
2019-03-30 19:00:00 16.9 15 Noroeste 25 Noroeste 0 -- -- 68
2019-03-30 18:00:00 18.5 12 Noroeste 24 Noroeste 0 -- -- 62
2019-03-30 17:00:00 18.8 14 Noroeste 26 Noroeste 0 -- -- 60
2019-03-30 16:00:00 20.1 13 Noroeste 33 Noroeste 0 -- -- 57
2019-03-30 15:00:00 21.3 14 Noroeste 30 Oeste 0 -- -- 55
2019-03-30 14:00:00 20.4 13 Noroeste 27 Oeste 0 -- -- 57
2019-03-30 13:00:00 20.5 11 Noroeste 26 Oeste 0 -- -- 56
2019-03-30 12:00:00 19.8 12 Noroeste 23 Noroeste 0 -- -- 56
2019-03-30 11:00:00 18.4 11 Noroeste 20 Noroeste 0 -- -- 58
2019-03-30 10:00:00 17.6 9 Norte 19 Norte 0 -- -- 71
2019-03-30 09:00:00 15.9 7 Noroeste 13 Noroeste 0 -- -- 85
2019-03-30 08:00:00 12.3 0 Calma 2 Sudoeste 0 -- -- 98
2019-03-30 07:00:00 10.4 0 Calma 3 Nordeste 0 -- -- 96
2019-03-30 06:00:00 10.7 0 Calma 4 Sudeste 0 -- -- 95
2019-03-30 05:00:00 10.6 2 Nordeste 5 Nordeste 0 -- -- 94
2019-03-30 04:00:00 11.3 3 Nordeste 5 Nordeste 0 -- -- 94
2019-03-30 03:00:00 12.1 0 Calma 5 Sudeste 0 -- -- 93
2019-03-30 02:00:00 12.6 5 Sudeste 7 Sudeste 0 -- -- 94
2019-03-30 01:00:00 12.1 2 Sudoeste 5 Noroeste 0 -- -- 92
2019-03-30 00:00:00 12.9 4 Noroeste 6 Noroeste 0 -- -- 91
2019-03-29 23:00:00 13.7 0 Calma 6 Norte 0 -- -- 88
2019-03-29 22:00:00 14.6 4 Norte 8 Noroeste 0 -- -- 87
2019-03-29 21:00:00 15.6 4 Noroeste 12 Norte 0 -- -- 84
2019-03-29 20:00:00 16.1 6 Norte 16 Norte 0 -- -- 81
2019-03-29 19:00:00 17.1 6 Norte 18 Noroeste 0 -- -- 77
2019-03-29 18:00:00 18.4 10 Noroeste 23 Noroeste 0 -- -- 72
2019-03-29 17:00:00 18.5 9 Norte 31 Nordeste 0 -- -- 72
2019-03-29 16:00:00 17.5 9 Sudeste 15 Este 0 -- -- 77
2019-03-29 15:00:00 18.4 8 Este 17 Este 0 -- -- 72
2019-03-29 14:00:00 19.1 5 Sudeste 23 Este 0 -- -- 66
2019-03-29 13:00:00 20.5 10 Este 23 Este 0 -- -- 59
2019-03-29 12:00:00 19 4 Este 19 Este 0 -- -- 65
2019-03-29 11:00:00 18.2 10 Este 19 Este 0 -- -- 70
2019-03-29 10:00:00 17.4 11 Este 21 Este 0 -- -- 73
2019-03-29 09:00:00 16.2 10 Este 17 Este 0 -- -- 85
2019-03-29 08:00:00 14 4 Sudeste 9 Este 0 -- -- 95
2019-03-29 07:00:00 12.3 5 Este 9 Este 0 -- -- 93
2019-03-29 06:00:00 12.9 6 Sudeste 17 Este 0 -- -- 93
2019-03-29 05:00:00 13.4 7 Este 14 Este 0 -- -- 95
2019-03-29 04:00:00 13.4 3 Este 9 Este 0 -- -- 94
2019-03-29 03:00:00 13.5 7 Este 11 Este 0 -- -- 93
2019-03-29 02:00:00 13.5 6 Este 12 Este 0 -- -- 92
2019-03-29 01:00:00 14.2 5 Este 15 Este 0 -- -- 91
2019-03-29 00:00:00 14.6 8 Este 14 Este 0 -- -- 91
2019-03-28 23:00:00 15 6 Este 12 Este 0 -- -- 91
2019-03-28 22:00:00 15.2 5 Este 10 Nordeste 0 -- -- 90
2019-03-28 21:00:00 15.5 5 Este 8 Nordeste 0 -- -- 86
2019-03-28 20:00:00 16.4 3 Norte 15 Norte 0 -- -- 81
2019-03-28 19:00:00 17.5 7 Norte 16 Norte 0 -- -- 74
2019-03-28 18:00:00 19.4 8 Norte 18 Este 0 -- -- 67
2019-03-28 17:00:00 19.5 5 Noroeste 16 Nordeste 0 -- -- 65
2019-03-28 16:00:00 18.8 5 Este 14 Nordeste 0 -- -- 68
2019-03-28 15:00:00 18.4 7 Nordeste 18 Norte 0 -- -- 69
2019-03-28 14:00:00 19.4 9 Nordeste 19 Nordeste 0 -- -- 66
2019-03-28 13:00:00 18.6 13 Nordeste 21 Nordeste 0 -- -- 71
2019-03-28 12:00:00 18.9 10 Norte 21 Noroeste 0 -- -- 70
2019-03-28 11:00:00 18.4 7 Sudeste 12 Nordeste 0 -- -- 72
2019-03-28 10:00:00 16.6 6 Nordeste 13 Norte 0 -- -- 82
2019-03-28 09:00:00 15.6 6 Nordeste 10 Norte 0 -- -- 94
2019-03-28 08:00:00 14.2 3 Sudeste 4 Este 0 -- -- 99
2019-03-28 07:00:00 13.1 2 Este 5 Sudeste 0 -- -- 98
2019-03-28 06:00:00 13.3 3 Nordeste 5 Sudeste 0 -- -- 97
2019-03-28 05:00:00 13.4 2 Este 4 Nordeste 0 -- -- 97
2019-03-28 04:00:00 13.7 4 Norte 10 Norte 0 -- -- 96
2019-03-28 03:00:00 12.9 0 Calma 4 Sudoeste 0 -- -- 94
2019-03-28 02:00:00 13.5 0 Calma 4 Sur 0 -- -- 93
2019-03-28 01:00:00 14.1 2 Sur 4 Sur 0 -- -- 93
2019-03-28 00:00:00 14.7 0 Calma 6 Norte 0 -- -- 91
2019-03-27 23:00:00 15 2 Norte 4 Norte 0 -- -- 91
2019-03-27 22:00:00 15.8 2 Norte 9 Norte 0 -- -- 90
2019-03-27 21:00:00 16.1 4 Norte 10 Nordeste 0 -- -- 88
2019-03-27 20:00:00 16.5 7 Norte 17 Noroeste 0 -- -- 85
2019-03-27 19:00:00 17.2 8 Noroeste 22 Norte 0 -- -- 82
2019-03-27 18:00:00 18.2 12 Noroeste 23 Noroeste 0 -- -- 76
2019-03-27 17:00:00 18.9 9 Noroeste 23 Noroeste 0 -- -- 74
2019-03-27 16:00:00 19.4 8 Norte 21 Norte 0 -- -- 69
2019-03-27 15:00:00 20.5 12 Noroeste 23 Oeste 0 -- -- 68
2019-03-27 14:00:00 21.1 12 Noroeste 26 Oeste 0 -- -- 65
2019-03-27 13:00:00 20.7 15 Oeste 25 Oeste 0 -- -- 67
2019-03-27 12:00:00 19.6 13 Oeste 22 Oeste 0 -- -- 73
2019-03-27 11:00:00 18.6 13 Oeste 23 Sudoeste 0 -- -- 77
2019-03-27 10:00:00 17.9 8 Oeste 16 Oeste 0 -- -- 81
2019-03-27 09:00:00 16.2 7 Noroeste 10 Oeste 0 -- -- 97
2019-03-27 08:00:00 13.5 2 Oeste 5 Sudoeste 0 -- -- 100
2019-03-27 07:00:00 11.9 2 Oeste 6 Oeste 0 -- -- 97
2019-03-27 06:00:00 11.5 0 Calma 4 Sur 0 -- -- 96
2019-03-27 05:00:00 12.3 2 Oeste 7 Oeste 0 -- -- 96
2019-03-27 04:00:00 12.6 5 Oeste 7 Oeste 0 -- -- 96
2019-03-27 03:00:00 13.1 0 Calma 10 Oeste 0 -- -- 95
2019-03-27 02:00:00 13.4 9 Oeste 12 Oeste 0 -- -- 95
2019-03-27 01:00:00 13.2 5 Noroeste 6 Noroeste 0 -- -- 94
2019-03-27 00:00:00 13.5 3 Oeste 9 Noroeste 0 -- -- 93
2019-03-26 23:00:00 14.4 7 Noroeste 13 Oeste 0 -- -- 92
2019-03-26 22:00:00 14.5 5 Noroeste 13 Oeste 0 -- -- 92
2019-03-26 21:00:00 14.6 8 Noroeste 13 Oeste 0 -- -- 89
2019-03-26 20:00:00 15.7 8 Noroeste 15 Noroeste 0 -- -- 85
2019-03-26 19:00:00 17.1 8 Noroeste 17 Noroeste 0 -- -- 76
2019-03-26 18:00:00 18.5 12 Noroeste 26 Oeste 0 -- -- 70
2019-03-26 17:00:00 19.7 14 Oeste 22 Oeste 0 -- -- 66
2019-03-26 16:00:00 19.6 10 Oeste 26 Oeste 0 -- -- 68
2019-03-26 15:00:00 19.1 14 Oeste 26 Sudoeste 0 -- -- 73
2019-03-26 14:00:00 16.9 10 Oeste 15 Oeste 0.2 -- -- 90
2019-03-26 13:00:00 13.9 8 Nordeste 34 Noroeste 12.8 -- -- 84
2019-03-26 12:00:00 17.2 12 Sudeste 29 Este 0.2 -- -- 81
2019-03-26 11:00:00 18.2 11 Este 20 Este 0 -- -- 74
2019-03-26 10:00:00 17.1 6 Sur 17 Sudeste 0 -- -- 82
2019-03-26 09:00:00 15.4 10 Sudeste 17 Sudeste 0 -- -- 90
2019-03-26 08:00:00 13.5 5 Este 11 Sudeste 0 -- -- 94
2019-03-26 07:00:00 12.9 9 Este 17 Este 0 -- -- 94
2019-03-26 06:00:00 12.8 4 Nordeste 5 Nordeste 0 -- -- 93
2019-03-26 05:00:00 12.9 3 Sudoeste 5 Norte 0 -- -- 92
2019-03-26 04:00:00 12.6 0 Calma 11 Oeste 0 -- -- 91
2019-03-26 03:00:00 12.8 9 Oeste 12 Oeste 0 -- -- 89
2019-03-26 02:00:00 13.7 3 Este 14 Sudeste 0 -- -- 83
2019-03-26 01:00:00 14.2 12 Sudeste 20 Sur 0 -- -- 82
2019-03-26 00:00:00 13.8 2 Noroeste 18 Sur 0 -- -- 81
2019-03-25 23:00:00 13.7 3 Sudeste 15 Oeste 0 -- -- 81
2019-03-25 22:00:00 14 5 Sudoeste 10 Sudoeste 0 -- -- 90
2019-03-25 21:00:00 14.4 0 Calma 35 Sudoeste 1.6 -- -- 92
2019-03-25 20:00:00 14.9 21 Sudoeste 37 Sudoeste 0.4 -- -- 87
2019-03-25 19:00:00 15.8 20 Sudoeste 33 Sudoeste 1.4 -- -- 86
2019-03-25 18:00:00 17.4 16 Sudoeste 24 Sudoeste 0 -- -- 76
2019-03-25 17:00:00 18.3 16 Oeste 34 Oeste 0 -- -- 66
2019-03-25 16:00:00 19.6 23 Oeste 36 Sudoeste 0 -- -- 61
2019-03-25 15:00:00 20 24 Oeste 37 Oeste 0 -- -- 63
2019-03-25 14:00:00 19.2 27 Oeste 39 Oeste 0 -- -- 66
2019-03-25 13:00:00 19.3 24 Oeste 33 Oeste 0 -- -- 67
2019-03-25 12:00:00 19.1 18 Oeste 27 Oeste 0 -- -- 71
2019-03-25 11:00:00 18.5 17 Oeste 27 Oeste 0 -- -- 75
2019-03-25 10:00:00 17.5 19 Oeste 26 Oeste 0 -- -- 79
2019-03-25 09:00:00 16.3 19 Oeste 25 Oeste 0 -- -- 91
2019-03-25 08:00:00 14.7 20 Sudoeste 25 Sudoeste 0 -- -- 96
2019-03-25 07:00:00 13.7 15 Oeste 24 Sudoeste 0 -- -- 96
2019-03-25 06:00:00 13.6 13 Oeste 19 Sudoeste 0 -- -- 93
2019-03-25 05:00:00 13.4 12 Oeste 17 Oeste 0 -- -- 93
2019-03-25 04:00:00 13.8 4 Oeste 5 Oeste 0 -- -- 95
2019-03-25 03:00:00 14.7 4 Nordeste 13 Este 0 -- -- 96
2019-03-25 02:00:00 15.2 9 Este 17 Este 0 -- -- 95
2019-03-25 01:00:00 15.9 13 Este 21 Este 0 -- -- 93
2019-03-25 00:00:00 15.4 0 Calma 5 Oeste 0 -- -- 93